createdAt,value
2018-10-01T00:00:09.948Z,60.87
2018-10-01T00:02:41.385Z,60.89
2018-10-01T00:05:10.092Z,60.73
2018-10-01T00:10:27.100Z,61.22
2018-10-01T00:13:14.452Z,61.30
2018-10-01T00:16:01.471Z,61.28
2018-10-01T00:18:33.094Z,61.64
2018-10-01T00:24:26.844Z,62.13
2018-10-01T00:27:14.122Z,61.50
2018-10-01T00:30:01.511Z,62.52
2018-10-01T00:32:48.761Z,62.87
2018-10-01T00:35:26.159Z,62.90
2018-10-01T00:38:13.218Z,62.81
2018-10-01T00:40:44.806Z,63.04
2018-10-01T00:43:32.242Z,63.25
2018-10-01T00:46:00.915Z,63.19
2018-10-01T00:48:48.112Z,63.46
2018-10-01T00:51:36.153Z,63.81
2018-10-01T00:57:30.698Z,63.90
2018-10-01T01:00:17.811Z,64.20
2018-10-01T01:03:05.194Z,63.88
2018-10-01T01:05:49.077Z,64.09
2018-10-01T01:08:36.469Z,64.24
2018-10-01T01:11:34.892Z,63.85
2018-10-01T01:14:03.549Z,64.54
2018-10-01T01:16:50.518Z,64.23
2018-10-01T01:19:37.597Z,64.36
2018-10-01T01:22:28.144Z,64.25
2018-10-01T01:25:12.228Z,64.28
2018-10-01T01:28:00.198Z,64.73
2018-10-01T01:30:47.498Z,64.59
2018-10-01T01:33:34.758Z,64.51
2018-10-01T01:36:15.154Z,64.79
2018-10-01T01:39:02.468Z,64.98
2018-10-01T01:45:12.017Z,65.01
2018-10-01T01:47:59.372Z,64.92
2018-10-01T01:50:46.755Z,65.15
2018-10-01T01:53:34.187Z,64.88
2018-10-01T01:56:21.686Z,64.95
2018-10-01T01:59:05.363Z,65.10
2018-10-01T02:01:42.632Z,65.46
2018-10-01T02:04:12.359Z,65.21
2018-10-01T02:06:41.077Z,65.35
2018-10-01T02:09:29.327Z,66.75
2018-10-01T02:12:17.179Z,66.43
2018-10-01T02:15:04.646Z,65.34
2018-10-01T02:18:07.395Z,66.31
2018-10-01T02:20:55.612Z,66.31
2018-10-01T02:23:42.998Z,66.04
2018-10-01T02:26:30.188Z,66.27
2018-10-01T02:28:59.076Z,66.35
2018-10-01T02:34:33.937Z,67.20
2018-10-01T02:40:39.627Z,67.25
2018-10-01T02:43:29.615Z,66.41
2018-10-01T02:46:25.092Z,67.30
2018-10-01T02:48:53.716Z,67.59
2018-10-01T02:51:40.876Z,68.04
2018-10-01T02:54:30.448Z,68.79
2018-10-01T02:57:17.770Z,68.47
2018-10-01T03:00:06.050Z,68.38
2018-10-01T03:02:53.053Z,68.68
2018-10-01T03:05:29.173Z,67.93
2018-10-01T03:11:23.008Z,69.08
2018-10-01T03:13:51.598Z,69.33
2018-10-01T03:16:38.755Z,68.70
2018-10-01T03:19:10.213Z,69.76
2018-10-01T03:21:57.461Z,69.46
2018-10-01T03:24:46.936Z,69.90
2018-10-01T03:27:34.346Z,69.64
2018-10-01T03:30:21.708Z,69.49
2018-10-01T03:32:50.341Z,68.70
2018-10-01T03:35:37.754Z,69.57
2018-10-01T03:38:25.226Z,69.80
2018-10-01T03:41:12.812Z,69.82
2018-10-01T03:43:42.278Z,68.42
2018-10-01T03:46:32.720Z,69.33
2018-10-01T03:49:20.074Z,69.48
2018-10-01T04:01:07.828Z,67.97
2018-10-01T04:15:50.951Z,68.74
2018-10-01T04:18:34.886Z,68.87
2018-10-01T04:24:28.136Z,69.19
2018-10-01T04:27:15.561Z,69.12
2018-10-01T04:45:19.569Z,68.67
2018-10-01T04:48:07.031Z,68.48
2018-10-01T04:51:01.888Z,68.48
2018-10-01T04:56:37.700Z,68.39
2018-10-01T04:59:24.861Z,68.02
2018-10-01T05:02:12.348Z,67.76
2018-10-01T05:04:59.775Z,67.67
2018-10-01T05:07:28.462Z,67.45
2018-10-01T05:10:17.322Z,67.39
2018-10-01T05:12:56.823Z,67.49
2018-10-01T05:15:44.872Z,67.30
2018-10-01T05:18:33.696Z,66.95
2018-10-01T05:21:22.396Z,66.86
2018-10-01T05:24:12.020Z,66.64
2018-10-01T05:30:06.666Z,66.51
2018-10-01T05:32:55.841Z,66.44
2018-10-01T05:38:50.279Z,66.05
2018-10-01T05:41:37.498Z,65.95
2018-10-01T05:47:32.191Z,66.44
2018-10-01T05:50:19.750Z,66.71
2018-10-01T05:53:07.159Z,66.82
2018-10-01T05:59:00.660Z,67.18
2018-10-01T06:01:48.097Z,65.62
2018-10-01T06:04:35.757Z,66.91
2018-10-01T06:07:22.896Z,67.57
2018-10-01T06:10:10.192Z,68.00
2018-10-01T06:12:57.493Z,67.95
2018-10-01T06:15:52.967Z,68.55
2018-10-01T06:18:39.942Z,68.47
2018-10-01T06:21:27.010Z,66.32
2018-10-01T06:24:14.398Z,67.26
2018-10-01T06:27:01.612Z,67.43
2018-10-01T06:29:48.971Z,67.76
2018-10-01T06:32:36.330Z,68.00
2018-10-01T06:35:23.879Z,68.05
2018-10-01T06:38:11.464Z,67.80
2018-10-01T06:47:11.922Z,64.22
2018-10-01T06:49:59.919Z,65.72
2018-10-01T06:55:54.859Z,66.72
2018-10-01T06:58:42.287Z,63.87
2018-10-01T07:01:29.669Z,65.68
2018-10-01T07:07:24.999Z,66.57
2018-10-01T07:10:10.542Z,66.33
2018-10-01T07:12:58.129Z,66.34
2018-10-01T07:15:45.369Z,66.28
2018-10-01T07:21:40.142Z,66.38
2018-10-01T07:24:35.714Z,66.45
2018-10-01T07:27:23.040Z,63.89
2018-10-01T07:36:24.100Z,65.66
2018-10-01T07:39:11.712Z,65.42
2018-10-01T07:41:58.891Z,65.09
2018-10-01T07:44:46.276Z,64.49
2018-10-01T07:47:33.654Z,64.85
2018-10-01T07:50:20.744Z,64.79
2018-10-01T07:53:08.696Z,64.68
2018-10-01T07:55:56.315Z,64.76
2018-10-01T07:58:44.034Z,64.75
2018-10-01T08:04:41.393Z,64.64
2018-10-01T08:07:29.402Z,64.28
2018-10-01T08:10:16.789Z,61.68
2018-10-01T08:13:05.270Z,63.49
2018-10-01T08:15:52.161Z,63.80
2018-10-01T08:18:39.576Z,64.01
2018-10-01T08:24:33.136Z,64.44
2018-10-01T08:27:20.663Z,64.89
2018-10-01T08:30:07.983Z,64.97
2018-10-01T08:32:55.349Z,65.08
2018-10-01T08:35:42.781Z,62.59
2018-10-01T08:41:40.520Z,63.14
2018-10-01T08:44:27.876Z,63.08
2018-10-01T08:50:21.807Z,63.25
2018-10-01T08:53:09.064Z,60.78
2018-10-01T08:55:56.631Z,62.67
2018-10-01T08:58:44.154Z,63.20
2018-10-01T09:01:31.472Z,63.42
2018-10-01T09:04:18.587Z,63.84
2018-10-01T09:07:06.110Z,64.10
2018-10-01T09:09:53.430Z,63.96
2018-10-01T09:12:40.959Z,64.07
2018-10-01T09:15:28.380Z,64.20
2018-10-01T09:18:15.760Z,64.17
2018-10-01T09:21:03.139Z,64.20
2018-10-01T09:23:50.576Z,64.31
2018-10-01T09:26:38.044Z,64.32
2018-10-01T09:29:25.506Z,64.32
2018-10-01T09:32:13.063Z,64.60
2018-10-01T09:35:00.544Z,64.89
2018-10-01T09:37:49.013Z,64.77
2018-10-01T09:40:36.902Z,61.55
2018-10-01T09:43:25.850Z,63.85
2018-10-01T09:46:13.456Z,64.39
2018-10-01T09:49:00.872Z,61.06
2018-10-01T09:51:48.335Z,63.43
2018-10-01T09:54:35.983Z,64.00
2018-10-01T09:57:23.487Z,61.25
2018-10-01T10:00:11.587Z,63.36
2018-10-01T10:02:58.942Z,64.02
2018-10-01T10:05:46.734Z,64.25
2018-10-01T10:08:34.101Z,64.61
2018-10-01T10:11:21.733Z,65.06
2018-10-01T10:14:09.940Z,65.65
2018-10-01T10:17:00.443Z,66.38
2018-10-01T10:22:53.350Z,66.89
2018-10-01T10:25:40.524Z,66.59
2018-10-01T10:28:27.962Z,66.64
2018-10-01T10:31:17.206Z,66.39
2018-10-01T10:34:04.830Z,66.48
2018-10-01T10:36:52.302Z,62.93
2018-10-01T10:39:47.392Z,65.35
2018-10-01T10:42:35.730Z,66.06
2018-10-01T10:45:22.951Z,65.99
2018-10-01T10:48:11.822Z,61.68
2018-10-01T10:50:59.581Z,63.97
2018-10-01T10:53:47.106Z,64.45
2018-10-01T10:59:30.084Z,65.15
2018-10-01T11:02:18.087Z,65.34
2018-10-01T11:04:46.736Z,62.32
2018-10-01T11:07:34.464Z,64.32
2018-10-01T11:10:21.846Z,61.08
2018-10-01T11:13:09.030Z,63.39
2018-10-01T11:15:37.637Z,60.50
2018-10-01T11:18:24.890Z,63.69
2018-10-01T11:21:13.065Z,64.62
2018-10-01T11:24:01.235Z,65.40
2018-10-01T11:26:48.704Z,66.03
2018-10-01T11:29:36.505Z,66.02
2018-10-01T11:32:08.086Z,65.48
2018-10-01T11:34:49.416Z,65.09
2018-10-01T11:37:36.510Z,61.66
2018-10-01T11:40:11.001Z,60.91
2018-10-01T11:42:59.703Z,63.35
2018-10-01T11:45:37.200Z,63.34
2018-10-01T11:48:24.429Z,63.49
2018-10-01T11:51:14.584Z,63.45
2018-10-01T11:54:01.898Z,59.23
2018-10-01T11:56:51.451Z,57.93
2018-10-01T11:59:43.807Z,60.96
2018-10-01T12:02:35.272Z,61.66
2018-10-01T12:05:07.684Z,62.07
2018-10-01T12:07:55.451Z,62.27
2018-10-01T12:10:26.139Z,62.17
2018-10-01T12:13:13.958Z,62.12
2018-10-01T12:15:43.458Z,62.24
2018-10-01T12:24:44.271Z,62.50
2018-10-01T12:27:13.803Z,62.11
2018-10-01T12:30:01.202Z,61.70
2018-10-01T12:35:56.212Z,60.95
2018-10-01T12:38:43.309Z,60.31
2018-10-01T12:41:32.203Z,56.00
2018-10-01T12:44:19.562Z,58.15
2018-10-01T12:46:58.637Z,58.39
2018-10-01T12:49:51.052Z,57.99
2018-10-01T12:52:20.668Z,57.57
2018-10-01T12:55:09.551Z,53.05
2018-10-01T12:57:56.778Z,51.53
2018-10-01T13:00:44.222Z,54.71
2018-10-01T13:03:32.147Z,55.22
2018-10-01T13:06:20.699Z,55.68
2018-10-01T13:09:08.102Z,55.93
2018-10-01T13:11:56.367Z,56.07
2018-10-01T13:14:43.976Z,55.97
2018-10-01T13:17:32.175Z,56.27
2018-10-01T13:20:19.621Z,56.38
2018-10-01T13:23:09.651Z,57.00
2018-10-01T13:25:41.212Z,54.01
2018-10-01T13:28:29.535Z,55.95
2018-10-01T13:31:08.975Z,56.17
2018-10-01T13:33:56.499Z,56.32
2018-10-01T13:39:45.786Z,56.65
2018-10-01T13:42:15.563Z,56.59
2018-10-01T13:45:10.903Z,53.10
2018-10-01T13:54:06.254Z,54.77
2018-10-01T13:56:51.443Z,49.76
2018-10-01T13:59:38.760Z,52.35
2018-10-01T14:02:26.250Z,52.44
2018-10-01T14:05:14.244Z,48.72
2018-10-01T14:08:01.958Z,51.28
2018-10-01T14:10:49.550Z,52.12
2018-10-01T14:13:36.988Z,52.20
2018-10-01T14:16:08.417Z,51.67
2018-10-01T14:18:56.117Z,51.64
2018-10-01T14:21:26.075Z,51.32
2018-10-01T14:24:14.619Z,51.49
2018-10-01T14:27:03.070Z,51.14
2018-10-01T14:29:50.328Z,51.06
2018-10-01T14:38:41.099Z,50.98
2018-10-01T14:41:25.658Z,51.01
2018-10-01T14:44:13.648Z,51.25
2018-10-01T14:46:44.594Z,51.44
2018-10-01T14:49:24.614Z,51.50
2018-10-01T14:52:12.305Z,51.41
2018-10-01T14:55:01.224Z,51.26
2018-10-01T14:57:49.064Z,51.19
2018-10-01T15:00:36.725Z,50.99
2018-10-01T15:03:23.927Z,51.07
2018-10-01T15:06:11.082Z,51.15
2018-10-01T15:08:59.235Z,51.58
2018-10-01T15:11:34.779Z,51.65
2018-10-01T15:14:22.202Z,51.99
2018-10-01T15:19:58.876Z,52.43
2018-10-01T15:22:46.424Z,52.54
2018-10-01T15:25:34.181Z,52.49
2018-10-01T15:28:27.248Z,52.59
2018-10-01T15:31:16.022Z,52.35
2018-10-01T15:36:54.719Z,52.22
2018-10-01T15:39:42.948Z,52.35
2018-10-01T15:42:12.152Z,52.07
2018-10-01T15:44:59.752Z,49.67
2018-10-01T15:50:56.808Z,52.58
2018-10-01T15:53:44.413Z,53.70
2018-10-01T15:56:31.805Z,55.57
2018-10-01T15:59:19.253Z,55.35
2018-10-01T16:02:07.386Z,59.04
2018-10-01T16:04:57.807Z,59.90
2018-10-01T16:07:45.839Z,64.36
2018-10-01T16:10:38.171Z,65.39
2018-10-01T16:13:26.259Z,68.88
2018-10-01T16:16:13.467Z,69.66
2018-10-01T16:19:01.052Z,70.80
2018-10-01T16:21:48.788Z,71.49
2018-10-01T16:24:36.809Z,71.76
2018-10-01T16:27:35.639Z,70.15
2018-10-01T16:36:39.406Z,73.07
2018-10-01T16:42:33.206Z,71.38
2018-10-01T16:48:27.107Z,72.77
2018-10-01T16:51:15.256Z,73.35
2018-10-01T16:54:02.782Z,73.97
2018-10-01T16:56:51.285Z,73.87
2018-10-01T16:59:38.855Z,74.00
2018-10-01T17:02:26.258Z,74.09
2018-10-01T17:14:33.754Z,72.29
2018-10-01T17:17:20.988Z,71.92
2018-10-01T17:20:08.432Z,73.62
2018-10-01T17:26:06.100Z,73.88
2018-10-01T17:28:53.413Z,74.06
2018-10-01T17:31:42.332Z,73.91
2018-10-01T17:34:30.891Z,74.02
2018-10-01T17:37:18.545Z,72.94
2018-10-01T17:40:06.942Z,74.11
2018-10-01T17:42:54.819Z,72.86
2018-10-01T17:45:42.565Z,74.41
2018-10-01T17:54:43.435Z,75.66
2018-10-01T17:57:31.206Z,73.89
2018-10-01T18:00:18.986Z,75.14
2018-10-01T18:12:24.522Z,75.39
2018-10-01T18:15:11.948Z,76.16
2018-10-01T18:17:59.533Z,75.99
2018-10-01T18:20:47.427Z,76.29
2018-10-01T18:23:35.484Z,76.31
2018-10-01T18:26:23.131Z,76.36
2018-10-01T18:29:11.213Z,76.73
2018-10-01T18:32:00.356Z,76.35
2018-10-01T18:34:48.236Z,76.24
2018-10-01T18:37:36.686Z,76.09
2018-10-01T18:40:25.511Z,75.94
2018-10-01T18:43:13.625Z,75.74
2018-10-01T18:46:01.014Z,75.52
2018-10-01T18:48:49.039Z,73.78
2018-10-01T18:54:42.666Z,75.04
2018-10-01T18:57:29.811Z,74.88
2018-10-01T19:00:16.870Z,74.57
2018-10-01T19:03:03.774Z,74.42
2018-10-01T19:05:51.326Z,74.29
2018-10-01T19:08:38.658Z,72.40
2018-10-01T19:11:26.144Z,73.44
2018-10-01T19:14:13.733Z,71.12
2018-10-01T19:17:01.645Z,71.94
2018-10-01T19:19:49.626Z,72.04
2018-10-01T19:22:37.142Z,71.97
2018-10-01T19:25:25.104Z,72.06
2018-10-01T19:28:12.792Z,72.02
2018-10-01T19:31:00.323Z,69.98
2018-10-01T19:33:48.436Z,71.11
2018-10-01T19:42:50.280Z,72.01
2018-10-01T19:45:38.183Z,72.04
2018-10-01T19:48:25.670Z,72.02
2018-10-01T19:51:13.286Z,70.03
2018-10-01T19:54:13.483Z,69.11
2018-10-01T19:57:03.416Z,70.82
2018-10-01T19:59:51.083Z,71.18
2018-10-01T20:02:39.904Z,71.49
2018-10-01T20:05:27.319Z,69.70
2018-10-01T20:11:22.433Z,71.36
2018-10-01T20:14:09.849Z,71.46
2018-10-01T20:16:57.645Z,69.54
2018-10-01T20:20:00.321Z,70.83
2018-10-01T20:22:48.162Z,71.31
2018-10-01T20:25:35.881Z,69.45
2018-10-01T20:28:23.890Z,70.61
2018-10-01T20:31:11.144Z,71.16
2018-10-01T20:33:59.408Z,71.43
2018-10-01T20:36:46.988Z,71.73
2018-10-01T20:39:34.768Z,69.97
2018-10-01T20:42:22.622Z,71.22
2018-10-01T20:45:19.379Z,71.80
2018-10-01T20:48:08.400Z,71.99
2018-10-01T20:50:56.675Z,72.33
2018-10-01T20:53:47.763Z,72.49
2018-10-01T20:56:36.277Z,72.59
2018-10-01T20:59:24.466Z,72.75
2018-10-01T21:02:11.865Z,72.97
2018-10-01T21:05:01.439Z,72.90
2018-10-01T21:07:49.290Z,73.13
2018-10-01T21:10:38.023Z,73.56
2018-10-01T21:13:33.274Z,73.46
2018-10-01T21:16:34.201Z,73.44
2018-10-01T21:19:27.361Z,73.33
2018-10-01T21:22:22.328Z,73.57
2018-10-01T21:25:10.224Z,73.68
2018-10-01T21:27:58.868Z,72.30
2018-10-01T21:30:48.842Z,73.37
2018-10-01T21:33:39.205Z,73.65
2018-10-01T21:36:27.314Z,74.04
2018-10-01T21:42:21.977Z,74.55
2018-10-01T21:45:09.659Z,74.58
2018-10-01T21:51:07.599Z,74.97
2018-10-01T21:53:56.719Z,75.15
2018-10-01T21:56:48.953Z,75.01
2018-10-01T21:59:36.751Z,75.34
2018-10-01T22:02:41.032Z,75.36
2018-10-01T22:05:31.968Z,75.61
2018-10-01T22:08:21.565Z,75.67
2018-10-01T22:11:08.834Z,75.79
2018-10-01T22:13:56.613Z,75.61
2018-10-01T22:16:47.868Z,75.52
2018-10-01T22:19:35.340Z,75.75
2018-10-01T22:22:22.814Z,75.78
2018-10-01T22:25:17.620Z,75.93
2018-10-01T22:28:11.832Z,76.01
2018-10-01T22:31:02.161Z,76.25
2018-10-01T22:33:49.609Z,75.96
2018-10-01T22:39:49.004Z,76.40
2018-10-01T22:42:37.653Z,76.31
2018-10-01T22:45:32.124Z,76.47
2018-10-01T22:48:31.133Z,76.31
2018-10-01T22:54:36.477Z,75.82
2018-10-01T22:57:32.713Z,76.15
2018-10-01T23:00:20.465Z,76.14
2018-10-01T23:03:09.586Z,75.02
2018-10-01T23:05:57.365Z,76.04
2018-10-01T23:08:46.579Z,76.44
2018-10-01T23:27:19.885Z,77.48
2018-10-01T23:30:08.053Z,77.66
2018-10-01T23:39:09.309Z,77.76
2018-10-01T23:51:23.642Z,78.61
2018-10-01T23:54:16.334Z,78.41
